Saint-Tropez, France
Current Conditions -  °F | °C
As of 11:00 AM on Sunday 26 Oct 2014 (Local Time) from LFMD Reporting Station
Overcast Overcast  
Wind Chill: 64°   Ceiling: 5200
Heat Index: 64°   Visibility: 6mi
Dew Point: 55°   Wind: 3mph
Humidity: 73%   Direction: NA
Pressure: 30.18"   Gusts: NA
Location:  43.27°N, 6.64°E
Report Text: LFMD 260900Z AUTO VRB03KT 9999 FEW043 OVC052 18/13 Q1022
Loading
Personal Weather Stations






























Interactive Weather Map
Tropical Storm Tracking
New forecast layout! Learn more

10-Day Weather Forecast

Advertisements
Track Severe Weather on mobile